WetterOnline ( https://www.wetteronline.de )

Wetter aktuell Berlin

Aktuelles Wetter: Berlin-Tegel (37m)

6-stündlich | Neueste Meldungen
Ortszeit Temperatur Wetter
Do, 26.11. 1:00 -0.1° C wolkenlos
Mi, 25.11. 19:00 1.4° C fast wolkenlos
Mi, 25.11. 13:00 1.9° C bedeckt
Mi, 25.11. 7:00 0.3° C Nebel
Mi, 25.11. 1:00 0.8° C leicht bewölkt
Di, 24.11. 19:00 4.4° C wolkenlos
Di, 24.11. 13:00 6.3° C leicht bewölkt
Di, 24.11. 7:00 1.2° C leicht bewölkt
Ortszeit Temperatur Wetter
Do, 26.11. 6:00 0.9° C bewölkt
Do, 26.11. 5:50 0.9° C -
Do, 26.11. 5:40 0.7° C -
Do, 26.11. 5:30 0.6° C bewölkt
Do, 26.11. 5:20 0.6° C -
Do, 26.11. 5:10 0.4° C -
Do, 26.11. 5:00 -0.1° C bewölkt
Do, 26.11. 4:30 -0.5° C leicht bewölkt
Do, 26.11. 4:00 -0.3° C wolkenlos
Do, 26.11. 3:30 -0.1° C wolkenlos
Do, 26.11. 3:00 -0.3° C fast wolkenlos
Do, 26.11. 2:30 -0.1° C leicht bewölkt
Ortszeit Relative Feuchte Sichtweite
Do, 26.11. 1:00 96% 25 km
Mi, 25.11. 19:00 98% 15 km
Mi, 25.11. 13:00 98% 2.8 km
Mi, 25.11. 7:00 100% 0.7 km
Mi, 25.11. 1:00 97% 35 km
Di, 24.11. 19:00 87% 40 km
Di, 24.11. 13:00 74% 30 km
Di, 24.11. 7:00 92% 18 km
Ortszeit Relative Feuchte Sichtweite
Do, 26.11. 6:00 96% 18 km
Do, 26.11. 5:50 96% -
Do, 26.11. 5:40 96% -
Do, 26.11. 5:30 96% 16 km
Do, 26.11. 5:20 96% -
Do, 26.11. 5:10 96% -
Do, 26.11. 5:00 98% 15 km
Do, 26.11. 4:30 99% 13 km
Do, 26.11. 4:00 98% 18 km
Do, 26.11. 3:30 97% 18 km
Do, 26.11. 3:00 99% 18 km
Do, 26.11. 2:30 97% 20 km
Ortszeit Niederschlagsmenge Niederschlagsart
Do, 26.11. 1:00 0.0 l/m2 in 6 Std. -
Mi, 25.11. 19:00 0.0 l/m2 in 12 Std. -
Mi, 25.11. 13:00 0.0 l/m2 in 6 Std. Nebel
Mi, 25.11. 7:00 0.0 l/m2 in 12 Std. Nebel
Mi, 25.11. 1:00 0.0 l/m2 in 6 Std. -
Di, 24.11. 19:00 0.0 l/m2 in 12 Std. -
Di, 24.11. 13:00 0.0 l/m2 in 6 Std. -
Di, 24.11. 7:00 0.0 l/m2 in 12 Std. -
Ortszeit Niederschlagsmenge Niederschlagsart
Do, 26.11. 6:00 0.0 l/m2 in 1 Std. -
Do, 26.11. 5:50 keine Meldung -
Do, 26.11. 5:40 keine Meldung -
Do, 26.11. 5:30 0.0 l/m2 in 1 Std. -
Do, 26.11. 5:20 keine Meldung -
Do, 26.11. 5:10 keine Meldung -
Do, 26.11. 5:00 0.0 l/m2 in 1 Std. -
Do, 26.11. 4:30 0.0 l/m2 in 1 Std. -
Do, 26.11. 4:00 0.0 l/m2 in 1 Std. -
Do, 26.11. 3:30 0.0 l/m2 in 1 Std. -
Do, 26.11. 3:00 0.0 l/m2 in 1 Std. -
Do, 26.11. 2:30 0.0 l/m2 in 1 Std. -
Ortszeit Stärke Spitze Richtung
km/h Bft. km/h Grad Sektor
Do, 26.11. 1:00 6 1 15 190° S
Mi, 25.11. 19:00 4 1 18 80° O
Mi, 25.11. 13:00 9 2 22 200° S
Mi, 25.11. 7:00 13 3 19 200° S
Mi, 25.11. 1:00 7 2 14 160° S
Di, 24.11. 19:00 7 2 18 190° S
Di, 24.11. 13:00 11 2 18 210° SW
Di, 24.11. 7:00 11 2 18 200° S
Ortszeit Stärke Spitze Richtung
km/h Bft. km/h Grad Sektor
Do, 26.11. 6:00 7 2 7 180° S
Do, 26.11. 5:50 7 2 - 180° S
Do, 26.11. 5:40 6 1 - 190° S
Do, 26.11. 5:30 6 1 7 180° S
Do, 26.11. 5:20 6 1 - 180° S
Do, 26.11. 5:10 6 1 - 160° S
Do, 26.11. 5:00 6 1 7 170° S
Do, 26.11. 4:30 4 1 7 200° S
Do, 26.11. 4:00 4 1 11 190° S
Do, 26.11. 3:30 7 2 11 190° S
Do, 26.11. 3:00 7 2 11 180° S
Do, 26.11. 2:30 6 1 7 170° S
Ortszeit Untergrenze Bedeckung Gattung
total tief tief mittel hoch
Do, 26.11. 1:00 - 0/8 0/8 - - -
Mi, 25.11. 19:00 7500 m 1/8 0/8 - - Ci
Mi, 25.11. 13:00 90 m 8/8 8/8 St - -
Mi, 25.11. 7:00 30 m 8/8 8/8 St - -
Mi, 25.11. 1:00 7500 m 4/8 0/8 - - Ci
Di, 24.11. 19:00 - 0/8 0/8 - - -
Di, 24.11. 13:00 1110 m 5/8 2/8 Sc - Ci
Di, 24.11. 7:00 7500 m 6/8 0/8 - - Ci
Ortszeit Bedeckungsgrad in Achtel und Wolkenuntergrenze
Do, 26.11. 6:00 7(900m)
Do, 26.11. 5:50 -
Do, 26.11. 5:40 -
Do, 26.11. 5:30 7(900m)
Do, 26.11. 5:20 -
Do, 26.11. 5:10 -
Do, 26.11. 5:00 7(870m)
Do, 26.11. 4:30 2(900m)
Do, 26.11. 4:00 keine Wolken
Do, 26.11. 3:30 keine Wolken
Do, 26.11. 3:00 1(660m)
Do, 26.11. 2:30 2(660m)
Ortszeit Luftdruck NN (hPa) Tendenz (hPa in 3 Std.)
Do, 26.11. 1:00 1020 + 0,4
Mi, 25.11. 19:00 1020 + 0,1
Mi, 25.11. 13:00 1020 - 0,7
Mi, 25.11. 7:00 1021 - 0,2
Mi, 25.11. 1:00 1022 - 1,5
Di, 24.11. 19:00 1024 - 0,5
Di, 24.11. 13:00 1025 - 1,6
Di, 24.11. 7:00 1027 - 0,5
Ortszeit Luftdruck NN (hPa) Tendenz (hPa in 3 Std.)
Do, 26.11. 6:00 1020 + 0,1
Do, 26.11. 5:50 1020 keine Meldung
Do, 26.11. 5:40 1020 keine Meldung
Do, 26.11. 5:30 1020 + 0,2
Do, 26.11. 5:20 1020 keine Meldung
Do, 26.11. 5:10 1020 keine Meldung
Do, 26.11. 5:00 1020 + 0,1
Do, 26.11. 4:30 1021 + 0,3
Do, 26.11. 4:00 1020 0,0
Do, 26.11. 3:30 1020 0,0
Do, 26.11. 3:00 1020 - 0,1
Do, 26.11. 2:30 1020 - 0,1
Ortszeit Schneehöhe (cm)
Do, 26.11. 1:00 0
Mi, 25.11. 19:00 0
Mi, 25.11. 13:00 0
Mi, 25.11. 7:00 0
Mi, 25.11. 1:00 0
Di, 24.11. 19:00 0
Di, 24.11. 13:00 0
Di, 24.11. 7:00 0
Ortszeit Schneehöhe (cm)
Do, 26.11. 6:00 -
Do, 26.11. 5:50 -
Do, 26.11. 5:40 -
Do, 26.11. 5:30 -
Do, 26.11. 5:20 -
Do, 26.11. 5:10 -
Do, 26.11. 5:00 -
Do, 26.11. 4:30 -
Do, 26.11. 4:00 -
Do, 26.11. 3:30 -
Do, 26.11. 3:00 -
Do, 26.11. 2:30 -
Link zu dieser Seite / Seite empfehlen

Das Wetter in ...